Time;durP1;ratioP1;P1;durP2;ratioP2;P2;SDS_P1;SDS_P2;PMS_P1;PMS_P2;Temp;Humidity;BMP_temperature;BMP_pressure;BME280_temperature;BME280_humidity;BME280_pressure;Samples;Min_cycle;Max_cycle;Signal;HPM_P1;HPM_P2
2022/08/25 00:01:44;;;;;;;7.97;1.60;;;26.40;99.90;;;;;;5000696;28;20351;-68
2022/08/25 00:04:12;;;;;;;6.75;1.25;;;26.40;99.90;;;;;;4983319;28;20050;-69
2022/08/25 00:06:39;;;;;;;5.95;1.65;;;26.30;99.90;;;;;;4992769;28;20031;-69
2022/08/25 00:09:07;;;;;;;5.43;1.73;;;26.40;99.90;;;;;;4980433;28;20038;-69
2022/08/25 00:11:35;;;;;;;7.97;1.75;;;26.40;99.90;;;;;;5002415;28;20056;-69
2022/08/25 00:14:07;;;;;;;6.75;1.52;;;26.40;99.90;;;;;;5002128;28;20136;-69
2022/08/25 00:16:33;;;;;;;4.47;1.50;;;26.40;99.90;;;;;;4971677;28;20367;-69
2022/08/25 00:19:04;;;;;;;3.53;1.75;;;26.50;99.90;;;;;;5001082;28;20484;-67
2022/08/25 00:21:30;;;;;;;5.60;1.63;;;26.50;99.90;;;;;;4998447;28;20454;-69
2022/08/25 00:23:56;;;;;;;8.27;1.77;;;26.50;99.90;;;;;;4985523;28;20042;-69
2022/08/25 00:26:23;;;;;;;4.55;1.30;;;26.50;99.90;;;;;;4982880;28;20042;-69
2022/08/25 00:28:49;;;;;;;8.18;1.50;;;26.50;99.90;;;;;;5003387;28;20034;-69
2022/08/25 00:31:19;;;;;;;7.13;1.45;;;26.50;99.90;;;;;;4999223;28;20381;-68
2022/08/25 00:33:46;;;;;;;10.65;1.70;;;26.50;99.90;;;;;;4983976;28;20108;-69
2022/08/25 00:36:14;;;;;;;9.50;1.75;;;26.50;99.90;;;;;;5001460;28;20109;-69
2022/08/25 00:38:42;;;;;;;8.07;1.83;;;26.40;99.90;;;;;;5000717;28;20064;-69
2022/08/25 00:41:10;;;;;;;7.40;1.60;;;26.40;99.90;;;;;;5000211;28;20502;-70
2022/08/25 00:44:07;;;;;;;7.78;1.42;;;26.30;99.90;;;;;;5000228;28;20030;-68
2022/08/25 00:46:36;;;;;;;6.03;1.60;;;26.20;99.90;;;;;;4989704;28;20478;-68
2022/08/25 00:49:10;;;;;;;5.68;1.50;;;26.20;99.90;;;;;;5003915;28;20539;-69
2022/08/25 00:51:48;;;;;;;9.90;1.70;;;26.20;99.90;;;;;;4999156;28;20101;-67
2022/08/25 00:54:19;;;;;;;8.50;1.50;;;26.20;99.90;;;;;;5000764;28;20036;-69
2022/08/25 00:56:46;;;;;;;7.40;1.47;;;26.30;99.90;;;;;;5001637;28;20030;-69
2022/08/25 00:59:13;;;;;;;6.05;1.80;;;26.40;99.90;;;;;;4999540;28;20109;-69
2022/08/25 01:01:39;;;;;;;7.75;1.90;;;26.40;99.90;;;;;;5001113;28;20050;-68
2022/08/25 01:04:06;;;;;;;6.88;1.80;;;26.40;99.90;;;;;;4996649;28;20501;-68
2022/08/25 01:06:35;;;;;;;15.93;2.40;;;26.30;99.90;;;;;;4997914;28;20213;-68
2022/08/25 01:09:02;;;;;;;4.90;1.60;;;26.20;99.90;;;;;;4979739;28;20040;-68
2022/08/25 01:11:28;;;;;;;8.52;1.80;;;26.00;99.90;;;;;;4998610;28;20034;-68
2022/08/25 01:13:56;;;;;;;6.07;1.27;;;26.00;99.90;;;;;;5000976;28;20559;-69
2022/08/25 01:16:22;;;;;;;7.78;1.60;;;26.00;99.90;;;;;;4982232;28;20049;-69
2022/08/25 01:18:51;;;;;;;5.63;1.50;;;25.90;99.90;;;;;;4977692;28;20486;-69
2022/08/25 01:21:19;;;;;;;7.35;1.67;;;25.80;99.90;;;;;;4982862;28;20061;-69
2022/08/25 01:23:46;;;;;;;5.22;1.63;;;25.80;99.90;;;;;;4999471;28;20044;-68
2022/08/25 01:26:22;;;;;;;7.38;1.50;;;25.90;99.90;;;;;;4997435;28;20120;-70
2022/08/25 01:31:36;;;;;;;8.65;1.50;;;25.80;99.90;;;;;;4998281;28;20451;-69
2022/08/25 01:34:05;;;;;;;9.70;1.77;;;25.80;99.90;;;;;;4998718;28;20378;-68
2022/08/25 01:36:32;;;;;;;5.95;1.38;;;25.80;99.90;;;;;;4997473;28;20466;-68
2022/08/25 01:38:58;;;;;;;5.32;1.80;;;25.80;99.90;;;;;;4988338;28;20038;-68
2022/08/25 01:41:53;;;;;;;7.68;1.67;;;25.70;99.90;;;;;;4980565;28;20063;-69
2022/08/25 01:44:19;;;;;;;4.70;1.80;;;25.60;99.90;;;;;;4998390;28;20026;-69
2022/08/25 01:46:45;;;;;;;5.78;1.77;;;25.60;99.90;;;;;;4983635;28;20509;-69
2022/08/25 01:49:11;;;;;;;6.32;1.55;;;25.50;99.90;;;;;;4998688;28;20035;-68
2022/08/25 01:51:51;;;;;;;5.43;1.77;;;25.50;99.90;;;;;;4996721;28;20084;-68
2022/08/25 01:54:17;;;;;;;6.03;1.42;;;25.50;99.90;;;;;;4998100;28;20421;-68
2022/08/25 01:56:42;;;;;;;6.60;2.15;;;25.40;99.90;;;;;;4997476;28;20038;-68
2022/08/25 01:59:09;;;;;;;7.20;1.60;;;25.50;99.90;;;;;;4996341;28;20037;-69
2022/08/25 02:01:35;;;;;;;10.25;1.85;;;25.40;99.90;;;;;;4999496;28;20026;-68
2022/08/25 02:04:01;;;;;;;3.55;1.45;;;25.50;99.90;;;;;;4999319;28;20045;-68
2022/08/25 02:06:33;;;;;;;3.72;1.60;;;25.50;99.90;;;;;;4982303;28;20037;-69
2022/08/25 02:09:10;;;;;;;;;;;25.50;99.90;;;;;;4999200;28;20118;-69
2022/08/25 02:11:38;;;;;;;6.97;1.40;;;25.50;99.90;;;;;;4999618;28;19924;-68
2022/08/25 02:14:06;;;;;;;4.10;1.45;;;25.60;99.90;;;;;;4998130;28;20042;-68
2022/08/25 02:16:35;;;;;;;7.35;1.45;;;25.60;99.90;;;;;;4998356;28;20042;-69
2022/08/25 02:19:02;;;;;;;5.93;1.35;;;25.60;99.90;;;;;;4997520;28;20042;-68
2022/08/25 02:21:28;;;;;;;5.70;1.60;;;25.60;99.90;;;;;;4978272;28;20040;-68
2022/08/25 02:23:55;;;;;;;10.27;1.23;;;25.60;99.90;;;;;;4996313;28;20533;-69
2022/08/25 02:26:22;;;;;;;6.95;1.33;;;25.60;99.90;;;;;;4997212;28;20168;-69
2022/08/25 02:28:49;;;;;;;4.82;1.27;;;25.60;99.90;;;;;;5001793;28;20408;-69
2022/08/25 02:31:16;;;;;;;5.82;1.40;;;25.50;99.90;;;;;;5000756;28;20109;-69
2022/08/25 02:33:42;;;;;;;6.28;1.50;;;25.50;99.90;;;;;;4985196;28;20434;-70
2022/08/25 02:36:10;;;;;;;6.57;1.45;;;25.50;99.90;;;;;;4999320;28;20038;-68
2022/08/25 02:38:37;;;;;;;5.40;1.40;;;25.60;99.90;;;;;;5003460;28;20030;-68
2022/08/25 02:41:13;;;;;;;4.25;1.17;;;25.60;99.90;;;;;;5000932;28;20045;-69
2022/08/25 02:43:41;;;;;;;7.07;1.70;;;25.60;99.90;;;;;;4998324;28;20113;-69
2022/08/25 02:46:08;;;;;;;4.82;1.40;;;25.50;99.90;;;;;;5000560;28;20137;-68
2022/08/25 02:48:34;;;;;;;4.05;1.20;;;25.50;99.90;;;;;;5002170;28;20513;-69
2022/08/25 02:51:01;;;;;;;4.43;1.20;;;25.50;99.90;;;;;;4999212;28;20056;-70
2022/08/25 02:53:28;;;;;;;4.18;1.02;;;25.40;99.90;;;;;;4997366;28;20034;-69
2022/08/25 02:55:54;;;;;;;4.75;1.20;;;25.40;99.90;;;;;;5001111;28;20076;-69
2022/08/25 02:58:20;;;;;;;8.30;1.45;;;25.40;99.90;;;;;;4998342;28;20053;-69
2022/08/25 03:00:47;;;;;;;4.47;0.90;;;25.40;99.90;;;;;;4989785;28;20030;-69
2022/08/25 03:03:15;;;;;;;3.22;1.10;;;25.40;99.90;;;;;;4999580;28;20034;-68
2022/08/25 03:05:42;;;;;;;1.75;0.90;;;25.50;99.90;;;;;;5002452;28;20034;-68
2022/08/25 03:08:08;;;;;;;4.47;1.15;;;25.60;99.90;;;;;;5000896;28;20038;-68
2022/08/25 03:10:35;;;;;;;3.15;1.00;;;25.60;99.90;;;;;;5001926;28;20490;-68
2022/08/25 03:13:00;;;;;;;3.60;1.42;;;25.60;99.90;;;;;;5002861;28;20062;-68
2022/08/25 03:15:27;;;;;;;5.13;1.75;;;25.60;99.90;;;;;;4983676;28;20469;-68
2022/08/25 03:17:54;;;;;;;2.78;1.25;;;25.60;99.90;;;;;;4998010;28;20129;-68
2022/08/25 03:20:26;;;;;;;6.28;1.70;;;25.60;99.90;;;;;;5000163;28;20042;-68
2022/08/25 03:22:52;;;;;;;3.58;1.55;;;25.50;99.90;;;;;;5002408;28;20039;-69
2022/08/25 03:28:03;;;;;;;3.78;1.42;;;25.40;99.90;;;;;;4999033;28;20549;-68
2022/08/25 03:30:30;;;;;;;4.40;1.50;;;25.40;99.90;;;;;;5002346;28;20382;-68
2022/08/25 03:32:56;;;;;;;5.88;1.30;;;25.40;99.90;;;;;;4998826;28;20133;-69
2022/08/25 03:35:22;;;;;;;5.28;1.45;;;25.40;99.90;;;;;;5000591;28;20411;-69
2022/08/25 03:37:48;;;;;;;2.92;1.25;;;25.30;99.90;;;;;;5000248;28;20559;-70
2022/08/25 03:40:16;;;;;;;4.15;1.40;;;25.30;99.90;;;;;;5002804;28;20042;-69
2022/08/25 03:42:44;;;;;;;1.65;1.00;;;25.40;99.90;;;;;;4983136;28;20033;-69
2022/08/25 03:45:11;;;;;;;4.30;1.58;;;25.40;99.90;;;;;;5000597;28;20046;-68
2022/08/25 03:47:39;;;;;;;3.53;1.30;;;25.40;99.90;;;;;;5002564;28;20042;-69
2022/08/25 03:50:10;;;;;;;2.90;1.48;;;25.50;99.90;;;;;;4980549;28;20044;-69
2022/08/25 03:52:36;;;;;;;4.93;1.20;;;25.50;99.90;;;;;;5003170;28;20045;-69
2022/08/25 03:55:04;;;;;;;4.05;1.27;;;25.50;99.90;;;;;;5004474;28;20041;-69
2022/08/25 03:57:30;;;;;;;3.83;1.17;;;25.50;99.90;;;;;;5000973;28;20034;-68
2022/08/25 03:59:56;;;;;;;4.63;1.42;;;25.50;99.90;;;;;;5002718;28;20482;-69
2022/08/25 04:02:22;;;;;;;2.08;1.05;;;25.50;99.90;;;;;;4979634;28;20038;-68
2022/08/25 04:04:49;;;;;;;3.47;1.20;;;25.50;99.90;;;;;;4985879;28;20056;-69
2022/08/25 04:07:15;;;;;;;4.53;1.30;;;25.40;99.90;;;;;;4982180;28;20038;-68
2022/08/25 04:09:42;;;;;;;5.45;1.27;;;25.50;99.90;;;;;;5000217;28;20038;-68
2022/08/25 04:12:08;;;;;;;3.28;1.20;;;25.50;99.90;;;;;;5001211;28;20049;-69
2022/08/25 04:14:33;;;;;;;4.68;1.30;;;25.50;99.90;;;;;;4982015;28;20034;-70
2022/08/25 04:16:59;;;;;;;5.68;1.70;;;25.50;99.90;;;;;;5000399;28;20036;-69
2022/08/25 04:19:26;;;;;;;1.80;1.20;;;25.50;99.90;;;;;;4997309;28;20556;-68
2022/08/25 04:21:51;;;;;;;3.80;1.15;;;25.50;99.90;;;;;;5000183;28;20062;-69
2022/08/25 04:24:18;;;;;;;3.47;1.30;;;25.60;99.90;;;;;;4999787;28;20073;-69
2022/08/25 04:26:47;;;;;;;6.30;1.10;;;25.60;99.90;;;;;;4985020;28;20095;-69
2022/08/25 04:29:16;;;;;;;4.20;1.40;;;25.50;99.90;;;;;;4996653;28;20066;-69
2022/08/25 04:31:45;;;;;;;3.65;1.35;;;25.40;99.90;;;;;;4999119;28;20038;-69
2022/08/25 04:34:12;;;;;;;2.40;1.10;;;25.30;99.90;;;;;;4980017;28;20406;-68
2022/08/25 04:36:38;;;;;;;5.38;1.20;;;25.30;99.90;;;;;;4985792;28;20034;-68
2022/08/25 04:39:05;;;;;;;5.35;1.63;;;25.20;99.90;;;;;;4997126;28;20069;-68
2022/08/25 04:41:31;;;;;;;2.35;1.40;;;25.20;99.90;;;;;;4999947;28;20358;-68
2022/08/25 04:43:58;;;;;;;3.60;1.60;;;25.20;99.90;;;;;;5001961;28;20038;-68
2022/08/25 04:46:27;;;;;;;5.78;1.40;;;25.20;99.90;;;;;;4984642;28;20395;-68
2022/08/25 04:48:55;;;;;;;5.05;1.55;;;25.20;99.90;;;;;;4984709;28;20022;-69
2022/08/25 04:51:25;;;;;;;5.82;1.52;;;25.20;99.90;;;;;;4996286;28;20393;-68
2022/08/25 04:53:52;;;;;;;4.50;1.50;;;25.20;99.90;;;;;;5001607;28;20042;-68
2022/08/25 04:56:20;;;;;;;4.60;1.60;;;25.20;99.90;;;;;;4996758;28;20502;-68
2022/08/25 04:58:46;;;;;;;3.13;1.63;;;25.10;99.90;;;;;;5001149;28;20022;-69
2022/08/25 05:01:16;;;;;;;3.35;1.70;;;25.00;99.90;;;;;;4984449;28;20033;-68
2022/08/25 05:03:44;;;;;;;5.53;1.52;;;25.00;99.90;;;;;;4988932;28;20041;-71
2022/08/25 05:06:10;;;;;;;4.28;2.13;;;25.00;99.90;;;;;;4997055;28;20520;-68
2022/08/25 05:08:35;;;;;;;5.47;2.45;;;25.00;99.90;;;;;;4996556;28;20038;-69
2022/08/25 05:11:11;;;;;;;8.68;4.50;;;25.00;99.90;;;;;;4999743;28;20560;-68
2022/08/25 05:13:37;;;;;;;7.75;5.43;;;25.00;99.90;;;;;;4979391;28;20240;-70
2022/08/25 05:16:04;;;;;;;6.15;4.93;;;25.00;99.90;;;;;;4987112;28;20117;-69
2022/08/25 05:18:31;;;;;;;9.70;5.45;;;25.00;99.90;;;;;;4988435;28;20049;-68
2022/08/25 05:21:05;;;;;;;9.35;5.40;;;25.00;99.90;;;;;;4996773;28;20137;-68
2022/08/25 05:23:30;;;;;;;7.72;4.40;;;25.00;99.90;;;;;;4998533;28;20049;-68
2022/08/25 05:26:02;;;;;;;5.97;4.20;;;25.10;99.90;;;;;;5001393;28;20046;-68
2022/08/25 05:28:28;;;;;;;7.97;3.28;;;25.10;99.90;;;;;;4989618;28;20061;-68
2022/08/25 05:30:57;;;;;;;4.00;2.72;;;25.20;99.90;;;;;;4997871;28;20049;-69
2022/08/25 05:33:23;;;;;;;5.40;3.20;;;25.10;99.90;;;;;;4998884;28;20065;-69
2022/08/25 05:35:49;;;;;;;6.65;2.88;;;25.20;99.90;;;;;;4989302;28;20058;-69
2022/08/25 05:38:15;;;;;;;5.80;2.28;;;25.20;99.90;;;;;;4998581;28;20038;-69
2022/08/25 05:40:40;;;;;;;3.63;2.08;;;25.30;99.90;;;;;;4995736;28;20034;-69
2022/08/25 05:43:06;;;;;;;6.03;2.40;;;25.30;99.90;;;;;;4997717;28;20074;-69
2022/08/25 05:45:33;;;;;;;7.65;2.30;;;25.40;99.90;;;;;;5002320;28;20034;-71
2022/08/25 05:47:59;;;;;;;4.88;2.45;;;25.50;99.90;;;;;;4996051;28;20046;-69
2022/08/25 05:50:26;;;;;;;5.20;1.88;;;25.50;99.90;;;;;;4997814;28;20049;-69
2022/08/25 05:52:52;;;;;;;4.32;1.63;;;25.50;99.90;;;;;;5001709;28;20160;-69
2022/08/25 05:55:18;;;;;;;3.08;1.63;;;25.60;99.90;;;;;;5000566;28;20136;-69
2022/08/25 05:57:44;;;;;;;2.80;1.77;;;25.70;99.90;;;;;;4979238;28;20033;-68
2022/08/25 06:00:10;;;;;;;6.55;2.40;;;25.80;99.90;;;;;;4985253;28;20583;-69
2022/08/25 06:02:42;;;;;;;5.65;1.98;;;25.80;99.90;;;;;;4997451;28;20088;-69
2022/08/25 06:05:09;;;;;;;1.98;1.42;;;25.80;99.90;;;;;;4979725;28;20081;-69
2022/08/25 06:07:35;;;;;;;3.85;2.00;;;25.80;99.90;;;;;;4970868;28;20179;-70
2022/08/25 06:10:06;;;;;;;2.33;1.40;;;25.90;99.90;;;;;;4983896;28;20117;-69
2022/08/25 06:12:34;;;;;;;5.88;1.70;;;25.90;99.90;;;;;;5003681;28;20034;-68
2022/08/25 06:15:02;;;;;;;3.65;1.95;;;25.90;99.90;;;;;;4998475;28;20030;-68
2022/08/25 06:17:28;;;;;;;4.78;1.33;;;25.90;99.90;;;;;;4985298;28;20042;-69
2022/08/25 06:19:53;;;;;;;1.92;0.98;;;25.90;99.90;;;;;;4999810;28;20467;-69
2022/08/25 06:22:20;;;;;;;2.05;0.93;;;25.90;99.90;;;;;;4987656;28;20026;-68
2022/08/25 06:24:46;;;;;;;5.10;0.90;;;25.80;99.90;;;;;;5003254;28;21368;-68
2022/08/25 06:27:12;;;;;;;4.38;1.50;;;25.90;99.90;;;;;;5004206;28;20104;-69
2022/08/25 06:29:38;;;;;;;2.97;1.00;;;25.90;99.90;;;;;;5001618;28;20390;-69
2022/08/25 06:32:04;;;;;;;3.50;1.33;;;25.90;99.90;;;;;;5000139;28;20049;-68
2022/08/25 06:34:30;;;;;;;5.28;1.13;;;25.90;99.90;;;;;;5001085;28;20121;-69
2022/08/25 06:36:56;;;;;;;4.28;1.10;;;25.90;99.90;;;;;;5001371;28;20541;-69
2022/08/25 06:39:23;;;;;;;3.85;1.13;;;26.00;99.90;;;;;;4998895;28;20054;-69
2022/08/25 06:41:55;;;;;;;2.60;1.00;;;26.00;99.90;;;;;;5003476;28;20034;-69
2022/08/25 06:44:23;;;;;;;3.28;1.00;;;26.00;99.90;;;;;;4984497;28;20038;-69
2022/08/25 06:46:50;;;;;;;2.90;1.13;;;25.90;99.90;;;;;;4983809;28;20104;-69
2022/08/25 06:49:16;;;;;;;2.22;1.00;;;25.90;99.90;;;;;;5003374;28;20057;-69
2022/08/25 06:51:42;;;;;;;4.68;1.20;;;26.00;99.90;;;;;;4999764;28;20480;-68
2022/08/25 06:54:11;;;;;;;4.55;1.10;;;26.00;99.90;;;;;;4999800;28;20070;-70
2022/08/25 06:56:39;;;;;;;5.00;1.23;;;26.10;99.90;;;;;;4986976;28;20049;-69
2022/08/25 06:59:06;;;;;;;4.47;1.40;;;26.20;99.90;;;;;;5004286;28;20030;-68
2022/08/25 07:01:33;;;;;;;2.88;1.10;;;26.30;99.90;;;;;;5001511;28;20164;-68
2022/08/25 07:04:01;;;;;;;2.95;1.15;;;26.40;99.90;;;;;;5001671;28;20044;-68
2022/08/25 07:06:31;;;;;;;5.05;1.10;;;26.40;99.90;;;;;;4997614;28;20540;-68
2022/08/25 07:08:57;;;;;;;4.13;1.05;;;26.50;99.90;;;;;;4975570;28;20810;-69
2022/08/25 07:11:23;;;;;;;3.75;1.40;;;26.60;99.90;;;;;;4997588;28;20065;-69
2022/08/25 07:13:50;;;;;;;3.72;1.48;;;26.70;99.90;;;;;;4998479;28;20066;-69
2022/08/25 07:16:17;;;;;;;3.88;1.20;;;26.80;99.90;;;;;;4984653;28;20041;-69
2022/08/25 07:18:45;;;;;;;4.45;1.38;;;26.90;99.90;;;;;;4999960;28;20038;-69
2022/08/25 07:21:12;;;;;;;2.63;1.10;;;27.00;99.90;;;;;;5001262;28;20034;-69
2022/08/25 07:23:41;;;;;;;3.05;0.90;;;27.00;99.90;;;;;;5001499;28;20038;-69
2022/08/25 07:26:11;;;;;;;5.93;1.33;;;26.90;99.90;;;;;;5001685;28;20053;-68
2022/08/25 07:28:37;;;;;;;2.10;1.00;;;26.80;99.90;;;;;;5006844;28;20034;-68
2022/08/25 07:31:04;;;;;;;5.43;1.30;;;26.80;99.90;;;;;;4995938;28;26314;-69
2022/08/25 07:33:30;;;;;;;3.58;1.08;;;26.90;99.90;;;;;;5002653;28;20482;-68
2022/08/25 07:35:56;;;;;;;6.47;1.20;;;27.00;99.90;;;;;;4985828;28;20049;-68
2022/08/25 07:38:22;;;;;;;3.95;1.35;;;27.10;99.90;;;;;;5000685;28;20064;-68
2022/08/25 07:40:53;;;;;;;3.47;1.45;;;27.20;99.90;;;;;;5004037;28;20041;-69
2022/08/25 07:43:21;;;;;;;4.45;1.27;;;27.30;99.90;;;;;;4978427;28;20514;-69
2022/08/25 07:45:47;;;;;;;3.97;1.15;;;27.40;99.90;;;;;;5001363;28;20386;-68
2022/08/25 07:48:14;;;;;;;3.45;1.20;;;27.40;99.90;;;;;;4998119;28;20034;-69
2022/08/25 07:50:44;;;;;;;4.97;1.30;;;27.60;99.90;;;;;;5000102;28;20034;-68
2022/08/25 07:53:12;;;;;;;5.13;1.38;;;27.60;99.90;;;;;;4988482;28;20034;-69
2022/08/25 07:55:40;;;;;;;8.45;1.45;;;27.70;99.90;;;;;;5001847;28;20034;-71
2022/08/25 07:58:07;;;;;;;4.40;1.50;;;27.80;99.90;;;;;;5000315;28;20478;-70
2022/08/25 08:00:35;;;;;;;6.45;1.50;;;27.80;99.90;;;;;;5001132;28;20092;-69
2022/08/25 08:03:03;;;;;;;3.30;1.20;;;27.80;99.90;;;;;;4991900;28;20046;-69
2022/08/25 08:05:30;;;;;;;4.18;1.40;;;27.90;99.90;;;;;;5001055;28;20481;-68
2022/08/25 08:07:56;;;;;;;4.70;1.60;;;27.90;99.90;;;;;;5000918;28;20049;-70
2022/08/25 08:10:24;;;;;;;3.90;1.40;;;28.00;99.90;;;;;;4996459;28;20038;-69
2022/08/25 08:12:50;;;;;;;4.43;1.60;;;28.10;99.90;;;;;;5000950;28;20042;-68
2022/08/25 08:15:16;;;;;;;6.28;1.55;;;28.20;99.90;;;;;;4999762;28;20083;-68
2022/08/25 08:17:42;;;;;;;3.78;1.50;;;28.20;99.90;;;;;;4982066;28;20397;-69
2022/08/25 08:20:09;;;;;;;3.20;1.60;;;28.30;99.90;;;;;;4999440;28;20037;-69
2022/08/25 08:22:37;;;;;;;3.25;1.58;;;28.30;99.90;;;;;;4999509;28;20062;-68
2022/08/25 08:25:04;;;;;;;5.47;1.65;;;28.40;99.90;;;;;;5001544;28;20060;-69
2022/08/25 08:27:30;;;;;;;4.45;1.85;;;28.50;99.90;;;;;;5001960;28;20046;-68
2022/08/25 08:29:56;;;;;;;3.40;1.45;;;28.60;99.90;;;;;;4999177;28;20253;-68
2022/08/25 08:32:24;;;;;;;3.58;1.55;;;28.70;99.90;;;;;;4997955;28;20042;-69
2022/08/25 08:34:50;;;;;;;6.90;1.75;;;28.80;99.90;;;;;;4999177;28;20030;-69
2022/08/25 08:37:15;;;;;;;4.38;1.80;;;28.80;99.90;;;;;;4999547;28;20120;-68
2022/08/25 08:39:41;;;;;;;3.65;1.60;;;28.90;99.90;;;;;;5000167;28;20342;-69
2022/08/25 08:42:41;;;;;;;5.20;2.03;;;28.90;99.90;;;;;;4998401;28;20900;-69
2022/08/25 08:45:21;;;;;;;7.45;1.60;;;29.00;99.90;;;;;;4991260;28;20100;-70
2022/08/25 08:48:09;;;;;;;4.30;1.75;;;29.00;99.90;;;;;;4995011;28;20486;-68
2022/08/25 08:50:41;;;;;;;6.88;1.48;;;29.00;99.90;;;;;;5002253;28;20034;-69
2022/08/25 08:53:21;;;;;;;9.25;1.73;;;29.10;99.90;;;;;;5001095;28;20458;-70
2022/08/25 08:55:59;;;;;;;5.72;1.77;;;29.20;99.90;;;;;;4999922;28;20031;-69
2022/08/25 08:58:48;;;;;;;6.55;1.77;;;29.20;99.90;;;;;;4995749;28;20034;-69
2022/08/25 09:01:28;;;;;;;2.58;1.50;;;29.30;99.90;;;;;;4980720;28;20030;-69
2022/08/25 09:04:01;;;;;;;6.60;1.75;;;29.40;99.90;;;;;;4981987;28;20083;-70
2022/08/25 09:06:36;;;;;;;6.25;2.20;;;29.60;99.90;;;;;;4998283;28;20056;-68
2022/08/25 09:09:04;;;;;;;6.88;2.08;;;29.60;99.90;;;;;;4994727;28;20068;-69
2022/08/25 09:11:58;;;;;;;5.57;1.90;;;29.70;99.90;;;;;;4993701;28;20052;-69
2022/08/25 09:14:27;;;;;;;10.48;2.20;;;29.80;99.90;;;;;;4987362;28;20058;-69
2022/08/25 09:17:09;;;;;;;7.05;2.40;;;29.70;99.90;;;;;;4997290;28;20037;-70
2022/08/25 09:20:23;;;;;;;5.80;2.40;;;29.60;99.90;;;;;;4976810;28;20041;-68
2022/08/25 09:23:09;;;;;;;4.35;1.90;;;29.70;99.90;;;;;;4992111;28;20044;-69
2022/08/25 09:26:12;;;;;;;6.93;2.42;;;29.80;99.90;;;;;;4993017;28;20529;-69
2022/08/25 09:28:37;;;;;;;;;;;30.00;99.90;;;;;;4992169;28;20050;-70
2022/08/25 09:31:24;;;;;;;3.72;1.88;;;30.00;99.90;;;;;;4989730;28;19940;-69
2022/08/25 09:33:56;;;;;;;3.75;2.03;;;30.10;99.90;;;;;;4994976;28;20073;-69
2022/08/25 09:36:22;;;;;;;6.72;1.95;;;30.20;99.90;;;;;;4992236;28;20180;-69
2022/08/25 09:38:48;;;;;;;3.67;2.00;;;30.20;99.90;;;;;;4995232;28;20121;-69
2022/08/25 09:41:33;;;;;;;6.82;1.75;;;30.20;99.90;;;;;;4982346;28;20046;-70
2022/08/25 09:43:59;;;;;;;6.70;2.42;;;30.30;99.90;;;;;;4992040;28;20044;-69
2022/08/25 09:46:27;;;;;;;4.70;2.13;;;30.20;99.90;;;;;;4991551;28;20034;-68
2022/08/25 09:48:55;;;;;;;5.40;1.80;;;30.20;99.90;;;;;;4993993;28;20034;-69
2022/08/25 09:51:29;;;;;;;4.20;2.00;;;30.30;99.90;;;;;;4992893;28;20420;-69
2022/08/25 09:54:14;;;;;;;5.68;2.15;;;30.50;99.90;;;;;;4989466;28;20137;-69
2022/08/25 09:56:59;;;;;;;3.33;2.10;;;30.50;99.90;;;;;;4989236;28;20500;-68
2022/08/25 09:59:33;;;;;;;3.47;2.13;;;30.60;99.90;;;;;;4991966;28;20509;-68
2022/08/25 10:02:19;;;;;;;7.53;2.28;;;30.80;99.90;;;;;;4992802;28;20030;-69
2022/08/25 10:04:45;;;;;;;3.70;1.80;;;30.80;99.90;;;;;;4992410;28;20435;-68
2022/08/25 10:07:24;;;;;;;5.30;2.00;;;30.70;99.90;;;;;;4977926;28;20073;-69
2022/08/25 10:09:58;;;;;;;6.45;2.40;;;30.80;99.90;;;;;;4972756;28;20041;-69
2022/08/25 10:12:47;;;;;;;7.15;2.20;;;30.60;99.90;;;;;;4990977;28;20117;-69
2022/08/25 10:15:21;;;;;;;8.48;2.20;;;30.80;99.90;;;;;;4974340;28;20041;-69
2022/08/25 10:17:51;;;;;;;6.35;2.20;;;31.10;99.90;;;;;;4995107;28;20045;-69
2022/08/25 10:20:22;;;;;;;6.70;2.10;;;30.80;99.90;;;;;;4989211;28;20046;-69
2022/08/25 10:22:48;;;;;;;4.40;2.30;;;30.90;99.90;;;;;;4991398;28;20077;-69
2022/08/25 10:25:20;;;;;;;7.30;2.50;;;31.10;99.90;;;;;;4993688;28;20294;-68
2022/08/25 10:27:52;;;;;;;7.72;2.67;;;31.30;99.90;;;;;;4992853;28;20034;-69
2022/08/25 10:30:22;;;;;;;8.27;2.10;;;31.50;99.90;;;;;;4991468;28;20048;-69
2022/08/25 10:33:09;;;;;;;5.70;2.67;;;31.60;99.90;;;;;;4991730;28;20064;-69
2022/08/25 10:35:51;;;;;;;5.68;1.80;;;31.50;99.90;;;;;;4992391;28;20046;-70
2022/08/25 10:38:32;;;;;;;6.80;2.30;;;31.60;99.90;;;;;;4988692;28;20420;-69
2022/08/25 10:41:09;;;;;;;6.90;2.50;;;31.80;99.90;;;;;;4993465;28;20049;-69
2022/08/25 10:43:45;;;;;;;4.28;2.00;;;31.80;99.90;;;;;;4984552;28;20038;-69
2022/08/25 10:46:38;;;;;;;7.72;2.28;;;31.90;99.90;;;;;;4992161;28;20101;-70
2022/08/25 10:49:18;;;;;;;4.88;2.25;;;32.00;99.90;;;;;;4991887;28;20042;-70
2022/08/25 10:52:06;;;;;;;4.93;2.20;;;32.10;99.90;;;;;;4973721;28;20055;-70
2022/08/25 10:54:44;;;;;;;6.05;2.15;;;32.00;99.90;;;;;;4975779;28;20038;-70
2022/08/25 10:57:46;;;;;;;7.43;2.40;;;31.60;99.90;;;;;;4993746;28;20121;-68
2022/08/25 11:00:17;;;;;;;8.77;2.10;;;31.90;99.90;;;;;;4990736;28;20053;-68
2022/08/25 11:02:46;;;;;;;11.43;2.50;;;32.30;99.90;;;;;;4994646;28;20042;-69
2022/08/25 11:05:25;;;;;;;4.53;2.00;;;32.50;99.90;;;;;;4980459;28;20145;-69
2022/08/25 11:07:59;;;;;;;4.97;2.00;;;32.70;99.90;;;;;;4976323;28;20066;-68
2022/08/25 11:10:34;;;;;;;5.00;2.13;;;33.10;99.90;;;;;;4990363;28;20069;-69
2022/08/25 11:13:05;;;;;;;5.18;2.00;;;33.70;99.90;;;;;;4979650;28;20045;-69
2022/08/25 11:15:49;;;;;;;7.63;1.98;;;33.90;99.90;;;;;;4992930;28;20499;-69
2022/08/25 11:18:15;;;;;;;7.82;2.05;;;33.90;99.90;;;;;;4992676;28;20042;-68
2022/08/25 11:20:52;;;;;;;7.50;2.15;;;33.60;99.90;;;;;;4972682;28;20034;-69
2022/08/25 11:23:21;;;;;;;6.30;2.17;;;33.70;99.90;;;;;;4995507;28;20050;-69
2022/08/25 11:25:51;;;;;;;6.20;2.20;;;33.20;99.90;;;;;;4995966;28;20053;-69
2022/08/25 11:28:56;;;;;;;9.40;2.78;;;32.90;99.90;;;;;;4993486;28;20627;-69
2022/08/25 11:31:23;;;;;;;5.80;2.42;;;33.00;99.90;;;;;;4991072;28;20129;-70
2022/08/25 11:33:50;;;;;;;6.93;2.20;;;33.80;99.90;;;;;;4992519;28;20050;-70
2022/08/25 11:36:30;;;;;;;5.97;2.08;;;34.00;99.90;;;;;;4980896;28;20109;-68
2022/08/25 11:39:20;;;;;;;6.38;2.50;;;34.70;99.90;;;;;;4993251;28;20042;-70
2022/08/25 11:41:58;;;;;;;7.50;2.50;;;34.40;99.90;;;;;;4992594;28;20030;-71
2022/08/25 11:44:32;;;;;;;8.98;2.15;;;34.00;99.90;;;;;;4991419;28;20042;-70
2022/08/25 11:46:58;;;;;;;6.10;2.30;;;34.60;99.90;;;;;;4998307;28;20444;-70
2022/08/25 11:49:48;;;;;;;6.07;2.53;;;34.80;99.90;;;;;;4992123;28;20041;-70
2022/08/25 11:52:32;;;;;;;6.38;2.28;;;35.30;99.90;;;;;;4977448;28;20041;-69
2022/08/25 11:55:25;;;;;;;5.05;2.10;;;35.90;99.90;;;;;;4988787;28;20036;-69
2022/08/25 11:58:14;;;;;;;5.07;2.28;;;35.80;99.90;;;;;;4990052;28;20882;-71
2022/08/25 12:00:42;;;;;;;7.68;2.40;;;35.80;99.90;;;;;;4978700;28;20065;-69
2022/08/25 12:03:36;;;;;;;7.28;2.58;;;35.90;99.90;;;;;;4998894;28;20038;-69
2022/08/25 12:06:25;;;;;;;6.88;2.45;;;35.60;99.90;;;;;;5002435;28;20084;-71
2022/08/25 12:09:00;;;;;;;4.57;1.80;;;35.60;99.90;;;;;;4997239;28;20413;-70
2022/08/25 12:11:41;;;;;;;7.90;1.83;;;35.70;99.90;;;;;;4989473;28;20406;-71
2022/08/25 12:14:25;;;;;;;7.15;1.83;;;36.10;99.90;;;;;;4984181;28;20074;-70
2022/08/25 12:16:53;;;;;;;6.80;2.03;;;35.80;99.90;;;;;;5002289;28;20169;-71
2022/08/25 12:19:28;;;;;;;5.40;2.20;;;36.00;99.90;;;;;;4994648;28;20034;-70
2022/08/25 12:22:14;;;;;;;4.80;2.10;;;35.90;99.90;;;;;;5000455;28;20331;-70
2022/08/25 12:24:43;;;;;;;4.45;2.05;;;34.60;99.90;;;;;;4994761;28;20057;-70
2022/08/25 12:27:28;;;;;;;5.40;2.35;;;34.80;99.90;;;;;;5002996;28;20057;-71
2022/08/25 12:30:00;;;;;;;7.40;2.28;;;34.60;99.90;;;;;;4997520;28;20792;-71
2022/08/25 12:32:44;;;;;;;5.72;2.10;;;34.90;99.90;;;;;;5000284;28;20490;-71
2022/08/25 12:35:16;;;;;;;5.80;2.42;;;35.30;99.90;;;;;;4997070;28;20939;-71
2022/08/25 12:38:02;;;;;;;7.30;2.33;;;36.00;99.90;;;;;;4984674;28;20125;-70
2022/08/25 12:40:31;;;;;;;9.23;2.53;;;36.60;99.90;;;;;;5001080;28;20036;-70
2022/08/25 12:43:21;;;;;;;5.70;2.33;;;35.80;99.90;;;;;;4986533;28;20038;-71
2022/08/25 12:45:54;;;;;;;7.93;2.22;;;36.10;99.90;;;;;;4992392;28;20036;-70
2022/08/25 12:48:26;;;;;;;5.93;2.33;;;36.00;99.90;;;;;;4987032;28;20062;-71
2022/08/25 12:51:06;;;;;;;3.75;1.77;;;36.10;99.90;;;;;;4999958;28;20050;-71
2022/08/25 12:53:38;;;;;;;6.07;2.05;;;35.50;99.90;;;;;;5000027;28;20062;-70
2022/08/25 12:56:35;;;;;;;7.43;2.17;;;34.50;99.90;;;;;;4990987;28;20084;-70
2022/08/25 12:59:01;;;;;;;5.28;2.10;;;34.30;99.90;;;;;;4983997;28;20034;-71
2022/08/25 13:01:35;;;;;;;4.13;1.90;;;34.70;99.90;;;;;;5001835;28;20544;-71
2022/08/25 13:04:22;;;;;;;4.93;2.00;;;35.00;99.90;;;;;;5000674;28;20077;-70
2022/08/25 13:06:54;;;;;;;5.68;2.30;;;33.90;99.90;;;;;;4978533;28;20034;-70
2022/08/25 13:09:30;;;;;;;8.02;2.05;;;33.90;99.90;;;;;;4988856;28;20034;-70
2022/08/25 13:12:14;;;;;;;5.95;2.08;;;32.80;99.90;;;;;;4986254;28;20038;-70
2022/08/25 13:14:42;;;;;;;4.10;1.77;;;31.80;99.90;;;;;;5000331;28;20038;-71